sensor_id;sensor_type;location;lat;lon;timestamp;P1;durP1;ratioP1;P2;durP2;ratioP2
47778;SDS011;33538;48.432;11.350;2023-03-24T00:00:24;5.22;;;3.55;;
47778;SDS011;33538;48.432;11.350;2023-03-24T00:02:51;7.40;;;3.17;;
47778;SDS011;33538;48.432;11.350;2023-03-24T00:05:19;4.88;;;3.08;;
47778;SDS011;33538;48.432;11.350;2023-03-24T00:07:47;4.75;;;3.28;;
47778;SDS011;33538;48.432;11.350;2023-03-24T00:10:20;4.32;;;3.00;;
47778;SDS011;33538;48.432;11.350;2023-03-24T00:12:49;5.22;;;3.53;;
47778;SDS011;33538;48.432;11.350;2023-03-24T00:15:17;4.40;;;2.72;;
47778;SDS011;33538;48.432;11.350;2023-03-24T00:17:46;4.82;;;2.70;;
47778;SDS011;33538;48.432;11.350;2023-03-24T00:20:14;6.43;;;2.85;;
47778;SDS011;33538;48.432;11.350;2023-03-24T00:22:46;4.45;;;2.75;;
47778;SDS011;33538;48.432;11.350;2023-03-24T00:25:14;5.45;;;3.08;;
47778;SDS011;33538;48.432;11.350;2023-03-24T00:27:42;4.53;;;3.08;;
47778;SDS011;33538;48.432;11.350;2023-03-24T00:30:10;5.25;;;3.05;;
47778;SDS011;33538;48.432;11.350;2023-03-24T00:32:38;4.15;;;2.65;;
47778;SDS011;33538;48.432;11.350;2023-03-24T00:35:06;3.90;;;2.53;;
47778;SDS011;33538;48.432;11.350;2023-03-24T00:37:35;9.32;;;3.08;;
47778;SDS011;33538;48.432;11.350;2023-03-24T00:40:03;5.88;;;2.90;;
47778;SDS011;33538;48.432;11.350;2023-03-24T00:42:31;3.30;;;2.40;;
47778;SDS011;33538;48.432;11.350;2023-03-24T00:44:58;6.10;;;2.83;;
47778;SDS011;33538;48.432;11.350;2023-03-24T00:47:25;4.60;;;2.72;;
47778;SDS011;33538;48.432;11.350;2023-03-24T00:49:51;5.72;;;3.00;;
47778;SDS011;33538;48.432;11.350;2023-03-24T00:52:20;4.97;;;2.70;;
47778;SDS011;33538;48.432;11.350;2023-03-24T00:54:49;4.72;;;2.60;;
47778;SDS011;33538;48.432;11.350;2023-03-24T00:57:18;4.05;;;2.55;;
47778;SDS011;33538;48.432;11.350;2023-03-24T00:59:45;3.63;;;2.22;;
47778;SDS011;33538;48.432;11.350;2023-03-24T01:02:12;5.07;;;2.20;;
47778;SDS011;33538;48.432;11.350;2023-03-24T01:04:39;3.25;;;1.90;;
47778;SDS011;33538;48.432;11.350;2023-03-24T01:07:06;5.15;;;2.63;;
47778;SDS011;33538;48.432;11.350;2023-03-24T01:09:34;4.72;;;2.88;;
47778;SDS011;33538;48.432;11.350;2023-03-24T01:12:02;5.30;;;2.65;;
47778;SDS011;33538;48.432;11.350;2023-03-24T01:14:29;4.07;;;2.78;;
47778;SDS011;33538;48.432;11.350;2023-03-24T01:16:56;3.90;;;2.78;;
47778;SDS011;33538;48.432;11.350;2023-03-24T01:19:23;4.53;;;2.25;;
47778;SDS011;33538;48.432;11.350;2023-03-24T01:21:50;3.30;;;2.35;;
47778;SDS011;33538;48.432;11.350;2023-03-24T01:24:17;4.65;;;3.00;;
47778;SDS011;33538;48.432;11.350;2023-03-24T01:26:45;5.00;;;2.47;;
47778;SDS011;33538;48.432;11.350;2023-03-24T01:29:12;3.60;;;2.53;;
47778;SDS011;33538;48.432;11.350;2023-03-24T01:31:39;5.05;;;2.47;;
47778;SDS011;33538;48.432;11.350;2023-03-24T01:34:06;3.92;;;2.85;;
47778;SDS011;33538;48.432;11.350;2023-03-24T01:36:32;6.13;;;2.92;;
47778;SDS011;33538;48.432;11.350;2023-03-24T01:38:59;4.15;;;2.70;;
47778;SDS011;33538;48.432;11.350;2023-03-24T01:41:26;3.53;;;2.47;;
47778;SDS011;33538;48.432;11.350;2023-03-24T01:43:59;6.18;;;2.75;;
47778;SDS011;33538;48.432;11.350;2023-03-24T01:46:26;3.10;;;2.35;;
47778;SDS011;33538;48.432;11.350;2023-03-24T01:48:54;6.10;;;2.90;;
47778;SDS011;33538;48.432;11.350;2023-03-24T01:51:26;6.78;;;2.65;;
47778;SDS011;33538;48.432;11.350;2023-03-24T01:53:57;3.90;;;2.72;;
47778;SDS011;33538;48.432;11.350;2023-03-24T01:56:26;4.68;;;2.53;;
47778;SDS011;33538;48.432;11.350;2023-03-24T01:58:58;5.57;;;3.38;;
47778;SDS011;33538;48.432;11.350;2023-03-24T02:01:29;4.35;;;2.50;;
47778;SDS011;33538;48.432;11.350;2023-03-24T02:03:56;5.95;;;2.58;;
47778;SDS011;33538;48.432;11.350;2023-03-24T02:06:25;4.15;;;2.33;;
47778;SDS011;33538;48.432;11.350;2023-03-24T02:08:52;4.75;;;2.38;;
47778;SDS011;33538;48.432;11.350;2023-03-24T02:11:21;4.50;;;2.55;;
47778;SDS011;33538;48.432;11.350;2023-03-24T02:13:50;4.80;;;2.80;;
47778;SDS011;33538;48.432;11.350;2023-03-24T02:16:21;3.63;;;2.60;;
47778;SDS011;33538;48.432;11.350;2023-03-24T02:19:13;4.75;;;2.45;;
47778;SDS011;33538;48.432;11.350;2023-03-24T02:28:29;4.63;;;2.75;;
47778;SDS011;33538;48.432;11.350;2023-03-24T02:34:12;4.25;;;2.92;;
47778;SDS011;33538;48.432;11.350;2023-03-24T02:37:19;4.50;;;2.78;;
47778;SDS011;33538;48.432;11.350;2023-03-24T02:42:58;4.88;;;2.72;;
47778;SDS011;33538;48.432;11.350;2023-03-24T02:45:33;6.40;;;2.90;;
47778;SDS011;33538;48.432;11.350;2023-03-24T02:48:08;5.03;;;2.55;;
47778;SDS011;33538;48.432;11.350;2023-03-24T02:50:47;4.50;;;2.83;;
47778;SDS011;33538;48.432;11.350;2023-03-24T02:53:18;8.77;;;3.83;;
47778;SDS011;33538;48.432;11.350;2023-03-24T02:55:51;6.90;;;3.15;;
47778;SDS011;33538;48.432;11.350;2023-03-24T02:58:22;6.03;;;2.80;;
47778;SDS011;33538;48.432;11.350;2023-03-24T03:00:58;3.28;;;2.40;;
47778;SDS011;33538;48.432;11.350;2023-03-24T03:03:31;6.35;;;3.30;;
47778;SDS011;33538;48.432;11.350;2023-03-24T03:06:02;4.30;;;2.67;;
47778;SDS011;33538;48.432;11.350;2023-03-24T03:08:34;3.92;;;2.33;;
47778;SDS011;33538;48.432;11.350;2023-03-24T03:11:03;3.95;;;2.40;;
47778;SDS011;33538;48.432;11.350;2023-03-24T03:13:33;6.07;;;3.08;;
47778;SDS011;33538;48.432;11.350;2023-03-24T03:16:03;4.03;;;2.42;;
47778;SDS011;33538;48.432;11.350;2023-03-24T03:18:35;4.82;;;2.70;;
47778;SDS011;33538;48.432;11.350;2023-03-24T03:21:07;4.80;;;2.25;;
47778;SDS011;33538;48.432;11.350;2023-03-24T03:23:39;6.63;;;2.90;;
47778;SDS011;33538;48.432;11.350;2023-03-24T03:26:11;2.72;;;2.20;;
47778;SDS011;33538;48.432;11.350;2023-03-24T03:28:41;4.13;;;2.78;;
47778;SDS011;33538;48.432;11.350;2023-03-24T03:31:12;6.07;;;2.95;;
47778;SDS011;33538;48.432;11.350;2023-03-24T03:33:43;7.13;;;2.60;;
47778;SDS011;33538;48.432;11.350;2023-03-24T03:36:16;3.50;;;2.17;;
47778;SDS011;33538;48.432;11.350;2023-03-24T03:38:48;3.85;;;2.38;;
47778;SDS011;33538;48.432;11.350;2023-03-24T03:41:23;5.20;;;2.75;;
47778;SDS011;33538;48.432;11.350;2023-03-24T03:43:49;4.22;;;2.70;;
47778;SDS011;33538;48.432;11.350;2023-03-24T03:46:17;8.25;;;2.78;;
47778;SDS011;33538;48.432;11.350;2023-03-24T03:48:44;3.10;;;2.25;;
47778;SDS011;33538;48.432;11.350;2023-03-24T03:51:11;4.57;;;2.72;;
47778;SDS011;33538;48.432;11.350;2023-03-24T03:53:40;3.03;;;2.50;;
47778;SDS011;33538;48.432;11.350;2023-03-24T03:56:12;2.80;;;2.05;;
47778;SDS011;33538;48.432;11.350;2023-03-24T03:58:41;5.13;;;2.20;;
47778;SDS011;33538;48.432;11.350;2023-03-24T04:01:09;6.18;;;2.42;;
47778;SDS011;33538;48.432;11.350;2023-03-24T04:03:45;3.22;;;2.58;;
47778;SDS011;33538;48.432;11.350;2023-03-24T04:06:21;4.50;;;2.60;;
47778;SDS011;33538;48.432;11.350;2023-03-24T04:09:00;5.30;;;2.50;;
47778;SDS011;33538;48.432;11.350;2023-03-24T04:11:35;4.45;;;2.47;;
47778;SDS011;33538;48.432;11.350;2023-03-24T04:14:28;5.05;;;2.80;;
47778;SDS011;33538;48.432;11.350;2023-03-24T04:17:17;5.32;;;2.80;;
47778;SDS011;33538;48.432;11.350;2023-03-24T04:19:54;3.72;;;2.40;;
47778;SDS011;33538;48.432;11.350;2023-03-24T04:22:30;6.82;;;2.17;;
47778;SDS011;33538;48.432;11.350;2023-03-24T04:25:06;4.63;;;2.55;;
47778;SDS011;33538;48.432;11.350;2023-03-24T04:27:41;5.82;;;3.10;;
47778;SDS011;33538;48.432;11.350;2023-03-24T04:30:14;6.80;;;3.08;;
47778;SDS011;33538;48.432;11.350;2023-03-24T04:32:46;4.47;;;2.65;;
47778;SDS011;33538;48.432;11.350;2023-03-24T04:35:17;7.38;;;2.88;;
47778;SDS011;33538;48.432;11.350;2023-03-24T04:37:47;4.43;;;2.67;;
47778;SDS011;33538;48.432;11.350;2023-03-24T04:40:15;4.07;;;2.50;;
47778;SDS011;33538;48.432;11.350;2023-03-24T04:42:43;3.65;;;2.53;;
47778;SDS011;33538;48.432;11.350;2023-03-24T04:45:15;5.07;;;2.80;;
47778;SDS011;33538;48.432;11.350;2023-03-24T04:47:44;4.05;;;2.40;;
47778;SDS011;33538;48.432;11.350;2023-03-24T04:50:13;7.55;;;2.70;;
47778;SDS011;33538;48.432;11.350;2023-03-24T04:52:53;3.85;;;2.30;;
47778;SDS011;33538;48.432;11.350;2023-03-24T04:55:25;3.58;;;2.47;;
47778;SDS011;33538;48.432;11.350;2023-03-24T04:58:00;5.65;;;2.60;;
47778;SDS011;33538;48.432;11.350;2023-03-24T05:00:28;3.67;;;2.50;;
47778;SDS011;33538;48.432;11.350;2023-03-24T05:02:55;4.22;;;2.67;;
47778;SDS011;33538;48.432;11.350;2023-03-24T05:05:22;5.15;;;2.63;;
47778;SDS011;33538;48.432;11.350;2023-03-24T05:07:49;4.03;;;2.58;;
47778;SDS011;33538;48.432;11.350;2023-03-24T05:10:16;4.13;;;2.60;;
47778;SDS011;33538;48.432;11.350;2023-03-24T05:12:45;5.15;;;3.22;;
47778;SDS011;33538;48.432;11.350;2023-03-24T05:15:11;5.05;;;2.80;;
47778;SDS011;33538;48.432;11.350;2023-03-24T05:17:40;4.75;;;2.22;;
47778;SDS011;33538;48.432;11.350;2023-03-24T05:20:07;4.03;;;2.78;;
47778;SDS011;33538;48.432;11.350;2023-03-24T05:22:34;4.47;;;2.50;;
47778;SDS011;33538;48.432;11.350;2023-03-24T05:25:01;6.63;;;2.90;;
47778;SDS011;33538;48.432;11.350;2023-03-24T05:27:28;4.28;;;2.50;;
47778;SDS011;33538;48.432;11.350;2023-03-24T05:29:55;3.60;;;2.35;;
47778;SDS011;33538;48.432;11.350;2023-03-24T05:32:22;4.45;;;2.55;;
47778;SDS011;33538;48.432;11.350;2023-03-24T05:34:50;3.45;;;2.55;;
47778;SDS011;33538;48.432;11.350;2023-03-24T05:37:17;3.25;;;2.20;;
47778;SDS011;33538;48.432;11.350;2023-03-24T05:39:44;3.75;;;2.38;;
47778;SDS011;33538;48.432;11.350;2023-03-24T05:42:11;3.67;;;2.67;;
47778;SDS011;33538;48.432;11.350;2023-03-24T05:44:37;2.70;;;2.08;;
47778;SDS011;33538;48.432;11.350;2023-03-24T05:47:04;3.70;;;2.35;;
47778;SDS011;33538;48.432;11.350;2023-03-24T05:49:31;3.42;;;2.28;;
47778;SDS011;33538;48.432;11.350;2023-03-24T05:51:59;5.45;;;2.47;;
47778;SDS011;33538;48.432;11.350;2023-03-24T05:54:26;4.35;;;2.40;;
47778;SDS011;33538;48.432;11.350;2023-03-24T05:56:53;4.30;;;2.85;;
47778;SDS011;33538;48.432;11.350;2023-03-24T05:59:19;3.55;;;2.63;;
47778;SDS011;33538;48.432;11.350;2023-03-24T06:01:46;5.25;;;2.70;;
47778;SDS011;33538;48.432;11.350;2023-03-24T06:04:13;5.45;;;2.95;;
47778;SDS011;33538;48.432;11.350;2023-03-24T06:06:40;4.53;;;2.78;;
47778;SDS011;33538;48.432;11.350;2023-03-24T06:09:08;4.50;;;2.92;;
47778;SDS011;33538;48.432;11.350;2023-03-24T06:11:35;3.63;;;2.65;;
47778;SDS011;33538;48.432;11.350;2023-03-24T06:14:02;6.68;;;2.65;;
47778;SDS011;33538;48.432;11.350;2023-03-24T06:16:28;4.72;;;2.85;;
47778;SDS011;33538;48.432;11.350;2023-03-24T06:18:55;4.32;;;2.72;;
47778;SDS011;33538;48.432;11.350;2023-03-24T06:21:22;4.72;;;3.00;;
47778;SDS011;33538;48.432;11.350;2023-03-24T06:23:49;7.85;;;4.53;;
47778;SDS011;33538;48.432;11.350;2023-03-24T06:26:17;8.43;;;4.55;;
47778;SDS011;33538;48.432;11.350;2023-03-24T06:28:43;9.90;;;4.82;;
47778;SDS011;33538;48.432;11.350;2023-03-24T06:31:10;6.80;;;4.35;;
47778;SDS011;33538;48.432;11.350;2023-03-24T06:33:37;6.18;;;4.45;;
47778;SDS011;33538;48.432;11.350;2023-03-24T06:36:04;7.20;;;3.88;;
47778;SDS011;33538;48.432;11.350;2023-03-24T06:38:31;7.82;;;4.18;;
47778;SDS011;33538;48.432;11.350;2023-03-24T06:40:58;6.75;;;3.75;;
47778;SDS011;33538;48.432;11.350;2023-03-24T06:43:27;6.63;;;3.50;;
47778;SDS011;33538;48.432;11.350;2023-03-24T06:45:53;6.45;;;3.30;;
47778;SDS011;33538;48.432;11.350;2023-03-24T06:48:20;4.70;;;3.10;;
47778;SDS011;33538;48.432;11.350;2023-03-24T06:50:47;7.53;;;3.92;;
47778;SDS011;33538;48.432;11.350;2023-03-24T06:53:14;5.07;;;3.13;;
47778;SDS011;33538;48.432;11.350;2023-03-24T06:55:41;5.30;;;3.03;;
47778;SDS011;33538;48.432;11.350;2023-03-24T06:58:08;4.32;;;2.85;;
47778;SDS011;33538;48.432;11.350;2023-03-24T07:00:36;4.60;;;2.47;;
47778;SDS011;33538;48.432;11.350;2023-03-24T07:03:03;5.07;;;3.05;;
47778;SDS011;33538;48.432;11.350;2023-03-24T07:05:29;5.03;;;3.13;;
47778;SDS011;33538;48.432;11.350;2023-03-24T07:07:56;4.88;;;3.17;;
47778;SDS011;33538;48.432;11.350;2023-03-24T07:10:26;3.92;;;2.70;;
47778;SDS011;33538;48.432;11.350;2023-03-24T07:12:52;4.50;;;3.03;;
47778;SDS011;33538;48.432;11.350;2023-03-24T07:15:19;5.47;;;3.30;;
47778;SDS011;33538;48.432;11.350;2023-03-24T07:17:47;6.90;;;3.10;;
47778;SDS011;33538;48.432;11.350;2023-03-24T07:20:14;4.35;;;3.22;;
47778;SDS011;33538;48.432;11.350;2023-03-24T07:22:41;4.85;;;3.03;;
47778;SDS011;33538;48.432;11.350;2023-03-24T07:25:08;5.22;;;2.97;;
47778;SDS011;33538;48.432;11.350;2023-03-24T07:27:35;5.03;;;2.67;;
47778;SDS011;33538;48.432;11.350;2023-03-24T07:30:02;5.50;;;3.10;;
47778;SDS011;33538;48.432;11.350;2023-03-24T07:32:29;4.97;;;2.63;;
47778;SDS011;33538;48.432;11.350;2023-03-24T07:34:57;4.80;;;2.63;;
47778;SDS011;33538;48.432;11.350;2023-03-24T07:37:24;6.32;;;3.58;;
47778;SDS011;33538;48.432;11.350;2023-03-24T07:39:51;6.30;;;3.10;;
47778;SDS011;33538;48.432;11.350;2023-03-24T07:42:18;6.20;;;3.30;;
47778;SDS011;33538;48.432;11.350;2023-03-24T07:44:44;4.38;;;2.88;;
47778;SDS011;33538;48.432;11.350;2023-03-24T07:47:11;5.30;;;3.17;;
47778;SDS011;33538;48.432;11.350;2023-03-24T07:49:38;3.30;;;2.65;;
47778;SDS011;33538;48.432;11.350;2023-03-24T07:52:06;5.07;;;2.80;;
47778;SDS011;33538;48.432;11.350;2023-03-24T07:54:33;4.22;;;2.90;;
47778;SDS011;33538;48.432;11.350;2023-03-24T07:57:00;8.00;;;3.10;;
47778;SDS011;33538;48.432;11.350;2023-03-24T07:59:27;5.15;;;2.92;;
47778;SDS011;33538;48.432;11.350;2023-03-24T08:01:54;5.45;;;2.70;;
47778;SDS011;33538;48.432;11.350;2023-03-24T08:04:24;3.70;;;2.70;;
47778;SDS011;33538;48.432;11.350;2023-03-24T08:06:51;4.20;;;3.08;;
47778;SDS011;33538;48.432;11.350;2023-03-24T08:09:19;4.97;;;2.80;;
47778;SDS011;33538;48.432;11.350;2023-03-24T08:11:46;3.63;;;2.38;;
47778;SDS011;33538;48.432;11.350;2023-03-24T08:14:13;4.07;;;2.22;;
47778;SDS011;33538;48.432;11.350;2023-03-24T08:16:39;6.25;;;2.95;;
47778;SDS011;33538;48.432;11.350;2023-03-24T08:19:06;3.72;;;2.70;;
47778;SDS011;33538;48.432;11.350;2023-03-24T08:21:33;3.53;;;2.28;;
47778;SDS011;33538;48.432;11.350;2023-03-24T08:24:00;4.15;;;2.45;;
47778;SDS011;33538;48.432;11.350;2023-03-24T08:26:28;3.50;;;2.10;;
47778;SDS011;33538;48.432;11.350;2023-03-24T08:28:55;4.05;;;2.65;;
47778;SDS011;33538;48.432;11.350;2023-03-24T08:31:21;2.55;;;1.92;;
47778;SDS011;33538;48.432;11.350;2023-03-24T08:33:48;2.90;;;2.10;;
47778;SDS011;33538;48.432;11.350;2023-03-24T08:36:15;2.55;;;1.90;;
47778;SDS011;33538;48.432;11.350;2023-03-24T08:38:42;2.50;;;2.03;;
47778;SDS011;33538;48.432;11.350;2023-03-24T08:41:08;4.82;;;2.15;;
47778;SDS011;33538;48.432;11.350;2023-03-24T08:43:36;2.35;;;1.63;;
47778;SDS011;33538;48.432;11.350;2023-03-24T08:46:05;3.28;;;2.28;;
47778;SDS011;33538;48.432;11.350;2023-03-24T08:48:33;2.45;;;2.10;;
47778;SDS011;33538;48.432;11.350;2023-03-24T08:50:59;2.88;;;1.90;;
47778;SDS011;33538;48.432;11.350;2023-03-24T08:53:34;3.38;;;2.30;;
47778;SDS011;33538;48.432;11.350;2023-03-24T08:56:01;3.85;;;2.10;;
47778;SDS011;33538;48.432;11.350;2023-03-24T08:58:27;2.72;;;2.00;;
47778;SDS011;33538;48.432;11.350;2023-03-24T09:00:55;2.22;;;1.90;;
47778;SDS011;33538;48.432;11.350;2023-03-24T09:03:22;2.58;;;1.58;;
47778;SDS011;33538;48.432;11.350;2023-03-24T09:05:49;2.90;;;2.08;;
47778;SDS011;33538;48.432;11.350;2023-03-24T09:08:17;2.47;;;1.70;;
47778;SDS011;33538;48.432;11.350;2023-03-24T09:10:44;2.85;;;2.05;;
47778;SDS011;33538;48.432;11.350;2023-03-24T09:13:11;4.55;;;2.05;;
47778;SDS011;33538;48.432;11.350;2023-03-24T09:15:38;2.50;;;1.88;;
47778;SDS011;33538;48.432;11.350;2023-03-24T09:18:06;2.47;;;1.85;;
47778;SDS011;33538;48.432;11.350;2023-03-24T09:20:33;2.60;;;1.80;;
47778;SDS011;33538;48.432;11.350;2023-03-24T09:23:00;1.92;;;1.52;;
47778;SDS011;33538;48.432;11.350;2023-03-24T09:25:27;3.55;;;2.00;;
47778;SDS011;33538;48.432;11.350;2023-03-24T09:27:53;3.08;;;1.77;;
47778;SDS011;33538;48.432;11.350;2023-03-24T09:30:20;6.82;;;2.08;;
47778;SDS011;33538;48.432;11.350;2023-03-24T09:32:47;3.85;;;2.25;;
47778;SDS011;33538;48.432;11.350;2023-03-24T09:35:15;3.67;;;2.00;;
47778;SDS011;33538;48.432;11.350;2023-03-24T09:37:42;2.95;;;2.05;;
47778;SDS011;33538;48.432;11.350;2023-03-24T09:40:12;2.60;;;1.80;;
47778;SDS011;33538;48.432;11.350;2023-03-24T09:42:45;3.22;;;1.92;;
47778;SDS011;33538;48.432;11.350;2023-03-24T09:45:19;4.32;;;2.10;;
47778;SDS011;33538;48.432;11.350;2023-03-24T09:47:47;2.95;;;1.50;;
47778;SDS011;33538;48.432;11.350;2023-03-24T09:50:20;3.08;;;1.88;;
47778;SDS011;33538;48.432;11.350;2023-03-24T09:52:50;4.47;;;1.60;;
47778;SDS011;33538;48.432;11.350;2023-03-24T09:55:20;5.07;;;2.15;;
47778;SDS011;33538;48.432;11.350;2023-03-24T09:57:50;3.60;;;2.20;;
47778;SDS011;33538;48.432;11.350;2023-03-24T10:00:18;3.90;;;2.10;;
47778;SDS011;33538;48.432;11.350;2023-03-24T10:02:47;4.43;;;1.75;;
47778;SDS011;33538;48.432;11.350;2023-03-24T10:05:19;7.28;;;2.35;;
47778;SDS011;33538;48.432;11.350;2023-03-24T10:07:51;5.70;;;2.13;;
47778;SDS011;33538;48.432;11.350;2023-03-24T10:10:23;4.20;;;1.98;;
47778;SDS011;33538;48.432;11.350;2023-03-24T10:12:58;2.83;;;1.73;;
47778;SDS011;33538;48.432;11.350;2023-03-24T10:15:31;3.58;;;2.00;;
47778;SDS011;33538;48.432;11.350;2023-03-24T10:18:14;2.83;;;2.10;;
47778;SDS011;33538;48.432;11.350;2023-03-24T10:20:58;3.10;;;2.00;;
47778;SDS011;33538;48.432;11.350;2023-03-24T10:23:32;3.75;;;2.05;;
47778;SDS011;33538;48.432;11.350;2023-03-24T10:26:04;3.67;;;2.25;;
47778;SDS011;33538;48.432;11.350;2023-03-24T10:28:56;3.45;;;1.60;;
47778;SDS011;33538;48.432;11.350;2023-03-24T10:31:37;2.38;;;1.67;;
47778;SDS011;33538;48.432;11.350;2023-03-24T10:34:04;3.50;;;2.17;;
47778;SDS011;33538;48.432;11.350;2023-03-24T10:36:35;2.05;;;1.63;;
47778;SDS011;33538;48.432;11.350;2023-03-24T10:39:02;2.55;;;1.60;;
47778;SDS011;33538;48.432;11.350;2023-03-24T10:41:44;2.45;;;1.65;;
47778;SDS011;33538;48.432;11.350;2023-03-24T10:44:11;3.30;;;1.83;;
47778;SDS011;33538;48.432;11.350;2023-03-24T10:46:41;4.45;;;1.60;;
47778;SDS011;33538;48.432;11.350;2023-03-24T10:49:13;2.95;;;2.33;;
47778;SDS011;33538;48.432;11.350;2023-03-24T10:51:44;2.00;;;1.45;;
47778;SDS011;33538;48.432;11.350;2023-03-24T10:54:14;3.15;;;1.98;;
47778;SDS011;33538;48.432;11.350;2023-03-24T10:56:43;2.85;;;1.70;;
47778;SDS011;33538;48.432;11.350;2023-03-24T10:59:16;3.67;;;1.92;;
47778;SDS011;33538;48.432;11.350;2023-03-24T11:01:54;2.92;;;2.08;;
47778;SDS011;33538;48.432;11.350;2023-03-24T11:04:22;2.60;;;1.95;;
47778;SDS011;33538;48.432;11.350;2023-03-24T11:06:59;3.75;;;1.90;;
47778;SDS011;33538;48.432;11.350;2023-03-24T11:09:29;3.30;;;1.42;;
47778;SDS011;33538;48.432;11.350;2023-03-24T11:12:04;3.55;;;1.52;;
47778;SDS011;33538;48.432;11.350;2023-03-24T11:14:44;2.83;;;1.50;;
47778;SDS011;33538;48.432;11.350;2023-03-24T11:17:13;1.92;;;1.27;;
47778;SDS011;33538;48.432;11.350;2023-03-24T11:19:48;3.30;;;1.20;;
47778;SDS011;33538;48.432;11.350;2023-03-24T11:22:17;1.75;;;1.17;;
47778;SDS011;33538;48.432;11.350;2023-03-24T11:24:44;1.50;;;1.30;;
47778;SDS011;33538;48.432;11.350;2023-03-24T11:27:14;1.63;;;1.20;;
47778;SDS011;33538;48.432;11.350;2023-03-24T11:29:41;2.03;;;1.48;;
47778;SDS011;33538;48.432;11.350;2023-03-24T11:32:10;0.57;;;0.57;;
47778;SDS011;33538;48.432;11.350;2023-03-24T11:34:39;2.13;;;1.10;;
47778;SDS011;33538;48.432;11.350;2023-03-24T11:37:12;1.58;;;1.15;;
47778;SDS011;33538;48.432;11.350;2023-03-24T11:39:43;1.30;;;1.10;;
47778;SDS011;33538;48.432;11.350;2023-03-24T11:42:29;1.52;;;1.15;;
47778;SDS011;33538;48.432;11.350;2023-03-24T11:44:56;1.48;;;1.13;;
47778;SDS011;33538;48.432;11.350;2023-03-24T11:47:23;2.38;;;1.25;;
47778;SDS011;33538;48.432;11.350;2023-03-24T11:49:57;2.70;;;1.20;;
47778;SDS011;33538;48.432;11.350;2023-03-24T11:52:39;2.85;;;1.50;;
47778;SDS011;33538;48.432;11.350;2023-03-24T11:55:13;3.10;;;1.33;;
47778;SDS011;33538;48.432;11.350;2023-03-24T11:57:45;1.95;;;1.42;;
47778;SDS011;33538;48.432;11.350;2023-03-24T12:00:18;3.45;;;1.35;;
47778;SDS011;33538;48.432;11.350;2023-03-24T12:02:58;2.58;;;1.60;;
47778;SDS011;33538;48.432;11.350;2023-03-24T12:05:44;2.70;;;1.60;;
47778;SDS011;33538;48.432;11.350;2023-03-24T12:08:21;3.15;;;1.50;;
47778;SDS011;33538;48.432;11.350;2023-03-24T12:11:02;3.33;;;1.85;;
47778;SDS011;33538;48.432;11.350;2023-03-24T12:13:37;2.38;;;1.73;;
47778;SDS011;33538;48.432;11.350;2023-03-24T12:16:20;3.25;;;2.08;;
47778;SDS011;33538;48.432;11.350;2023-03-24T12:19:10;2.72;;;1.70;;
47778;SDS011;33538;48.432;11.350;2023-03-24T12:21:55;3.67;;;1.95;;
47778;SDS011;33538;48.432;11.350;2023-03-24T12:24:33;3.17;;;2.45;;
47778;SDS011;33538;48.432;11.350;2023-03-24T12:27:15;3.13;;;2.25;;
47778;SDS011;33538;48.432;11.350;2023-03-24T12:29:53;4.53;;;1.95;;
47778;SDS011;33538;48.432;11.350;2023-03-24T12:32:32;4.65;;;2.13;;
47778;SDS011;33538;48.432;11.350;2023-03-24T12:38:23;2.88;;;1.50;;
47778;SDS011;33538;48.432;11.350;2023-03-24T12:41:03;2.28;;;1.42;;
47778;SDS011;33538;48.432;11.350;2023-03-24T12:43:59;2.25;;;1.58;;
47778;SDS011;33538;48.432;11.350;2023-03-24T12:46:37;2.20;;;1.60;;
47778;SDS011;33538;48.432;11.350;2023-03-24T12:49:20;2.65;;;1.95;;
47778;SDS011;33538;48.432;11.350;2023-03-24T12:52:17;3.88;;;1.60;;
47778;SDS011;33538;48.432;11.350;2023-03-24T12:54:57;3.75;;;2.03;;
47778;SDS011;33538;48.432;11.350;2023-03-24T12:57:28;2.47;;;1.38;;
47778;SDS011;33538;48.432;11.350;2023-03-24T13:00:02;3.33;;;1.00;;
47778;SDS011;33538;48.432;11.350;2023-03-24T13:02:36;1.58;;;1.23;;
47778;SDS011;33538;48.432;11.350;2023-03-24T13:05:06;2.05;;;1.38;;
47778;SDS011;33538;48.432;11.350;2023-03-24T13:07:41;0.73;;;0.73;;
47778;SDS011;33538;48.432;11.350;2023-03-24T13:10:11;1.02;;;0.88;;
47778;SDS011;33538;48.432;11.350;2023-03-24T13:12:42;3.33;;;0.88;;
47778;SDS011;33538;48.432;11.350;2023-03-24T13:15:17;1.63;;;1.00;;
47778;SDS011;33538;48.432;11.350;2023-03-24T13:17:47;0.60;;;0.60;;
47778;SDS011;33538;48.432;11.350;2023-03-24T13:20:21;0.70;;;0.47;;
47778;SDS011;33538;48.432;11.350;2023-03-24T13:22:51;0.98;;;0.88;;
47778;SDS011;33538;48.432;11.350;2023-03-24T13:25:20;1.23;;;0.73;;
47778;SDS011;33538;48.432;11.350;2023-03-24T13:27:55;1.15;;;0.80;;
47778;SDS011;33538;48.432;11.350;2023-03-24T13:30:28;1.10;;;0.80;;
47778;SDS011;33538;48.432;11.350;2023-03-24T13:32:59;2.27;;;0.80;;
47778;SDS011;33538;48.432;11.350;2023-03-24T13:35:36;1.27;;;0.82;;
47778;SDS011;33538;48.432;11.350;2023-03-24T13:38:13;0.80;;;0.80;;
47778;SDS011;33538;48.432;11.350;2023-03-24T13:40:44;1.17;;;0.82;;
47778;SDS011;33538;48.432;11.350;2023-03-24T13:43:16;1.20;;;0.50;;
47778;SDS011;33538;48.432;11.350;2023-03-24T13:45:47;0.95;;;0.82;;
47778;SDS011;33538;48.432;11.350;2023-03-24T13:48:23;1.13;;;0.80;;
47778;SDS011;33538;48.432;11.350;2023-03-24T13:50:56;1.67;;;0.77;;
47778;SDS011;33538;48.432;11.350;2023-03-24T13:53:29;1.85;;;0.95;;
47778;SDS011;33538;48.432;11.350;2023-03-24T13:55:58;1.15;;;0.85;;
47778;SDS011;33538;48.432;11.350;2023-03-24T13:58:27;0.88;;;0.63;;
47778;SDS011;33538;48.432;11.350;2023-03-24T14:04:17;1.13;;;0.65;;
47778;SDS011;33538;48.432;11.350;2023-03-24T14:06:48;0.98;;;0.90;;
47778;SDS011;33538;48.432;11.350;2023-03-24T14:09:17;1.55;;;0.75;;
47778;SDS011;33538;48.432;11.350;2023-03-24T14:14:34;1.67;;;0.80;;
47778;SDS011;33538;48.432;11.350;2023-03-24T14:17:08;1.33;;;0.65;;
47778;SDS011;33538;48.432;11.350;2023-03-24T14:19:37;1.02;;;0.73;;
47778;SDS011;33538;48.432;11.350;2023-03-24T14:22:12;0.77;;;0.73;;
47778;SDS011;33538;48.432;11.350;2023-03-24T14:24:41;1.02;;;0.60;;
47778;SDS011;33538;48.432;11.350;2023-03-24T14:27:28;0.52;;;0.52;;
47778;SDS011;33538;48.432;11.350;2023-03-24T14:30:01;1.30;;;0.57;;
47778;SDS011;33538;48.432;11.350;2023-03-24T14:32:32;0.68;;;0.68;;
47778;SDS011;33538;48.432;11.350;2023-03-24T14:35:04;1.05;;;0.82;;
47778;SDS011;33538;48.432;11.350;2023-03-24T14:37:46;0.85;;;0.75;;
47778;SDS011;33538;48.432;11.350;2023-03-24T14:40:21;1.85;;;0.85;;
47778;SDS011;33538;48.432;11.350;2023-03-24T14:42:56;0.70;;;0.70;;
47778;SDS011;33538;48.432;11.350;2023-03-24T14:45:37;2.47;;;1.13;;
47778;SDS011;33538;48.432;11.350;2023-03-24T14:48:15;0.63;;;0.60;;
47778;SDS011;33538;48.432;11.350;2023-03-24T14:50:57;0.80;;;0.68;;
47778;SDS011;33538;48.432;11.350;2023-03-24T14:53:26;1.40;;;0.60;;
47778;SDS011;33538;48.432;11.350;2023-03-24T14:55:53;0.50;;;0.50;;
47778;SDS011;33538;48.432;11.350;2023-03-24T14:58:21;0.57;;;0.50;;
47778;SDS011;33538;48.432;11.350;2023-03-24T15:00:52;1.02;;;0.80;;
47778;SDS011;33538;48.432;11.350;2023-03-24T15:03:35;1.13;;;0.70;;
47778;SDS011;33538;48.432;11.350;2023-03-24T15:06:11;1.35;;;0.45;;
47778;SDS011;33538;48.432;11.350;2023-03-24T15:08:42;0.47;;;0.47;;
47778;SDS011;33538;48.432;11.350;2023-03-24T15:11:12;1.00;;;0.50;;
47778;SDS011;33538;48.432;11.350;2023-03-24T15:13:42;2.30;;;0.40;;
47778;SDS011;33538;48.432;11.350;2023-03-24T15:16:16;0.45;;;0.40;;